createdAt,value
2023-03-27T00:02:08.235Z,95806.34
2023-03-27T00:07:00.038Z,95809.31
2023-03-27T00:11:52.226Z,95811.28
2023-03-27T00:16:46.237Z,95812.53
2023-03-27T00:21:37.950Z,95829.63
2023-03-27T00:26:30.530Z,95818.19
2023-03-27T00:31:22.299Z,95823.41
2023-03-27T00:36:15.105Z,95825.00
2023-03-27T00:41:08.474Z,95826.00
2023-03-27T00:46:27.471Z,95825.00
2023-03-27T00:51:24.362Z,95821.81
2023-03-27T00:56:16.486Z,95830.75
2023-03-27T01:01:13.634Z,95826.88
2023-03-27T01:06:05.812Z,95828.16
2023-03-27T01:11:51.526Z,95831.22
2023-03-27T01:17:37.113Z,95832.22
2023-03-27T01:28:34.141Z,95828.97
2023-03-27T01:34:09.229Z,95838.72
2023-03-27T01:39:42.097Z,95833.53
2023-03-27T01:44:59.594Z,95846.97
2023-03-27T01:50:06.891Z,95843.59
2023-03-27T01:55:05.382Z,95857.97
2023-03-27T02:00:19.442Z,95861.28
2023-03-27T02:05:31.565Z,95870.34
2023-03-27T02:10:33.942Z,95872.56
2023-03-27T02:15:37.681Z,95881.75
2023-03-27T02:20:29.902Z,95897.88
2023-03-27T02:25:31.381Z,95904.00
2023-03-27T02:30:29.778Z,95917.53
2023-03-27T02:35:36.741Z,95920.94
2023-03-27T02:41:01.705Z,95934.97
2023-03-27T02:46:09.611Z,95946.59
2023-03-27T02:51:32.305Z,95954.13
2023-03-27T02:56:28.149Z,95968.28
2023-03-27T03:01:23.467Z,95975.47
2023-03-27T03:06:15.363Z,95988.19
2023-03-27T03:11:13.274Z,95997.91
2023-03-27T03:16:05.760Z,96015.69
2023-03-27T03:20:57.610Z,96021.13
2023-03-27T03:25:52.507Z,96021.22
2023-03-27T03:30:50.288Z,96038.78
2023-03-27T03:35:43.128Z,96045.28
2023-03-27T03:40:34.889Z,96059.69
2023-03-27T03:45:26.592Z,96060.47
2023-03-27T03:50:18.369Z,96070.97
2023-03-27T03:55:15.747Z,96082.19
2023-03-27T04:10:28.839Z,96109.22
2023-03-27T04:20:43.715Z,96135.72
2023-03-27T04:25:35.503Z,96144.69
2023-03-27T04:30:27.671Z,96159.06
2023-03-27T04:35:24.614Z,96166.22
2023-03-27T04:40:21.158Z,96186.34
2023-03-27T04:45:17.576Z,96183.13
2023-03-27T04:50:11.942Z,96193.13
2023-03-27T04:55:05.074Z,96203.97
2023-03-27T04:59:59.255Z,96225.34
2023-03-27T05:04:50.922Z,96241.44
2023-03-27T05:09:42.769Z,96260.91
2023-03-27T05:14:34.507Z,96264.56
2023-03-27T05:19:26.872Z,96290.88
2023-03-27T05:24:19.431Z,96300.13
2023-03-27T05:29:11.140Z,96307.53
2023-03-27T05:34:05.120Z,96330.16
2023-03-27T05:39:08.262Z,96332.16
2023-03-27T05:44:01.219Z,96347.94
2023-03-27T05:48:52.936Z,96356.19
2023-03-27T05:53:44.663Z,96373.22
2023-03-27T05:58:36.800Z,96389.19
2023-03-27T06:03:35.567Z,96401.56
2023-03-27T06:13:35.935Z,96429.34
2023-03-27T06:18:28.036Z,96443.38
2023-03-27T06:23:20.698Z,96453.81
2023-03-27T06:28:13.313Z,96467.69
2023-03-27T06:33:07.608Z,96488.22
2023-03-27T06:38:02.586Z,96501.81
2023-03-27T06:43:08.359Z,96510.34
2023-03-27T06:48:18.797Z,96518.88
2023-03-27T06:53:26.575Z,96526.47
2023-03-27T07:24:47.464Z,96656.56
2023-03-27T07:40:01.265Z,96679.31
2023-03-27T07:44:54.469Z,96698.75
2023-03-27T07:54:55.313Z,96730.47
2023-03-27T08:04:57.200Z,96758.59
2023-03-27T08:15:13.657Z,96782.22
2023-03-27T10:17:42.422Z,96975.41
2023-03-27T10:28:30.345Z,96980.25
2023-03-27T10:33:36.693Z,96988.44
2023-03-27T10:43:44.807Z,96996.22
2023-03-27T10:49:18.392Z,97003.63
2023-03-27T10:54:53.286Z,97010.06
2023-03-27T11:10:50.472Z,97023.41
2023-03-27T11:26:17.530Z,97041.06
2023-03-27T11:31:46.476Z,97049.06
2023-03-27T11:42:17.712Z,97056.78
2023-03-27T12:04:21.964Z,97060.34
2023-03-27T12:22:09.227Z,97063.56
2023-03-27T12:27:48.633Z,97069.41
2023-03-27T12:38:38.095Z,97071.94
2023-03-27T12:43:40.282Z,97063.72
2023-03-27T12:48:33.350Z,97082.88
2023-03-27T12:53:27.862Z,97085.88
2023-03-27T13:10:44.298Z,97091.63
2023-03-27T13:37:50.514Z,97112.94
2023-03-27T13:42:49.256Z,97111.09
2023-03-27T13:48:43.972Z,97118.63
2023-03-27T13:59:57.082Z,97126.88
2023-03-27T14:05:29.375Z,97132.91
2023-03-27T14:10:56.402Z,97138.94
2023-03-27T14:16:37.231Z,97144.16
2023-03-27T14:21:49.433Z,97160.97
2023-03-27T14:26:45.370Z,97151.31
2023-03-27T14:31:45.705Z,97147.56
2023-03-27T14:36:53.015Z,97154.97
2023-03-27T14:42:04.923Z,97155.81
2023-03-27T14:57:44.485Z,97174.03
2023-03-27T15:02:38.696Z,97169.47
2023-03-27T15:07:35.756Z,97172.38
2023-03-27T15:12:28.126Z,97171.03
2023-03-27T15:22:40.058Z,97155.84
2023-03-27T15:27:44.805Z,97148.59
2023-03-27T15:37:57.083Z,97148.81
2023-03-27T15:42:51.828Z,97150.00
2023-03-27T15:47:45.359Z,97153.03
2023-03-27T15:52:37.114Z,97147.78
2023-03-27T15:57:31.567Z,97160.25
2023-03-27T16:07:38.626Z,97166.47
2023-03-27T16:12:47.564Z,97166.84
2023-03-27T16:17:45.494Z,97171.78
2023-03-27T16:22:38.746Z,97171.56
2023-03-27T16:27:37.871Z,97178.97
2023-03-27T16:32:30.162Z,97180.91
2023-03-27T16:42:31.449Z,97190.69
2023-03-27T16:47:24.529Z,97203.34
2023-03-27T16:57:22.295Z,97199.66
2023-03-27T17:07:19.705Z,97208.47
2023-03-27T17:12:11.490Z,97215.38
2023-03-27T17:17:03.465Z,97219.16
2023-03-27T17:21:55.785Z,97225.31
2023-03-27T17:26:48.837Z,97235.69
2023-03-27T17:31:44.869Z,97239.50
2023-03-27T17:36:44.848Z,97259.78
2023-03-27T17:46:48.001Z,97267.97
2023-03-27T17:51:39.811Z,97279.88
2023-03-27T17:56:33.911Z,97293.84
2023-03-27T18:01:29.607Z,97290.34
2023-03-27T18:06:21.616Z,97322.47
2023-03-27T18:11:24.308Z,97342.00
2023-03-27T18:21:22.027Z,97352.63
2023-03-27T18:26:14.665Z,97345.84
2023-03-27T18:31:11.937Z,97352.50
2023-03-27T18:36:11.174Z,97355.97
2023-03-27T18:41:02.934Z,97371.25
2023-03-27T18:46:03.107Z,97382.34
2023-03-27T18:56:05.572Z,97393.53
2023-03-27T19:00:57.657Z,97403.84
2023-03-27T19:05:51.704Z,97411.63
2023-03-27T19:10:44.134Z,97419.44
2023-03-27T19:15:36.532Z,97424.38
2023-03-27T19:20:29.501Z,97422.94
2023-03-27T19:25:21.285Z,97431.56
2023-03-27T19:35:20.628Z,97433.50
2023-03-27T19:45:21.245Z,97417.19
2023-03-27T19:50:14.486Z,97422.38
2023-03-27T19:55:07.511Z,97428.22
2023-03-27T19:59:59.226Z,97430.31
2023-03-27T20:04:51.548Z,97426.94
2023-03-27T20:09:43.262Z,97435.03
2023-03-27T20:14:36.856Z,97436.34
2023-03-27T20:19:30.830Z,97437.59
2023-03-27T20:24:22.520Z,97431.94
2023-03-27T20:29:18.549Z,97433.38
2023-03-27T20:34:10.725Z,97429.16
2023-03-27T20:39:06.237Z,97431.25
2023-03-27T20:49:06.305Z,97436.91
2023-03-27T20:53:58.431Z,97444.72
2023-03-27T20:58:51.377Z,97448.28
2023-03-27T21:03:46.695Z,97468.22
2023-03-27T21:08:39.057Z,97469.00
2023-03-27T21:13:31.291Z,97482.94
2023-03-27T21:18:24.287Z,97475.69
2023-03-27T21:23:16.437Z,97490.41
2023-03-27T21:28:08.504Z,97484.44
2023-03-27T21:33:00.540Z,97481.34
2023-03-27T21:37:52.452Z,97489.13
2023-03-27T21:42:44.166Z,97500.31
2023-03-27T21:47:47.223Z,97504.38
2023-03-27T21:52:39.675Z,97512.13
2023-03-27T21:57:31.573Z,97514.72
2023-03-27T22:03:18.001Z,97520.91
2023-03-27T22:13:59.105Z,97533.72
2023-03-27T22:18:50.950Z,97529.81
2023-03-27T22:23:43.586Z,97535.81
2023-03-27T22:28:35.280Z,97522.53
2023-03-27T22:33:26.983Z,97531.28
2023-03-27T22:38:18.635Z,97535.81
2023-03-27T22:43:10.709Z,97538.38
2023-03-27T22:48:15.289Z,97544.06
2023-03-27T22:58:43.127Z,97559.75
2023-03-27T23:25:57.631Z,97595.31
2023-03-27T23:30:59.029Z,97587.47
2023-03-27T23:35:53.888Z,97598.16
2023-03-27T23:40:45.837Z,97592.94
2023-03-27T23:45:37.565Z,97597.63
2023-03-27T23:50:29.277Z,97606.22
2023-03-27T23:55:21.158Z,97611.72
